Time;durP1;ratioP1;P1;durP2;ratioP2;P2;SDS_P1;SDS_P2;PMS_P1;PMS_P2;Temp;Humidity;BMP_temperature;BMP_pressure;BME280_temperature;BME280_humidity;BME280_pressure;Samples;Min_cycle;Max_cycle;Signal;HPM_P1;HPM_P2
2022/04/25 00:01:17;;;;;;;7.95;4.75;;;21.00;61.20;;;;;;5003517;28;92089;-84
2022/04/25 00:03:44;;;;;;;5.40;4.30;;;21.00;61.30;;;;;;5004894;28;92645;-87
2022/04/25 00:06:10;;;;;;;5.35;4.40;;;21.00;61.30;;;;;;5007498;28;92397;-84
2022/04/25 00:08:36;;;;;;;5.30;4.20;;;21.00;61.20;;;;;;5006931;28;92010;-85
2022/04/25 00:11:01;;;;;;;7.32;4.43;;;21.00;61.20;;;;;;5005988;28;92267;-84
2022/04/25 00:13:27;;;;;;;5.00;4.35;;;21.00;61.10;;;;;;5007135;28;94602;-85
2022/04/25 00:15:54;;;;;;;5.40;4.05;;;21.00;61.00;;;;;;5005980;28;95081;-84
2022/04/25 00:18:20;;;;;;;6.43;4.40;;;21.00;61.00;;;;;;5006529;28;92245;-84
2022/04/25 00:20:45;;;;;;;4.78;3.90;;;21.00;61.10;;;;;;5004045;28;92399;-83
2022/04/25 00:23:11;;;;;;;5.63;4.60;;;21.00;61.10;;;;;;5003842;28;94023;-85
2022/04/25 00:25:37;;;;;;;5.13;4.32;;;21.00;61.10;;;;;;5007864;28;93323;-84
2022/04/25 00:28:04;;;;;;;4.88;4.20;;;21.00;60.90;;;;;;5004491;28;92758;-84
2022/04/25 00:30:37;;;;;;;5.30;4.43;;;20.90;60.70;;;;;;5004911;28;92359;-83
2022/04/25 00:33:03;;;;;;;5.40;4.07;;;21.00;61.00;;;;;;5003377;28;95234;-85
2022/04/25 00:35:29;;;;;;;5.78;4.75;;;20.90;60.90;;;;;;4995867;28;95113;-86
2022/04/25 00:37:54;;;;;;;4.63;4.07;;;20.90;60.90;;;;;;5005250;28;92950;-86
2022/04/25 00:40:24;;;;;;;4.70;4.03;;;20.90;60.80;;;;;;5005749;28;91319;-84
2022/04/25 00:42:50;;;;;;;5.57;4.32;;;20.90;60.80;;;;;;5003446;28;95173;-86
2022/04/25 00:45:17;;;;;;;5.00;4.22;;;20.90;60.70;;;;;;5005973;28;92271;-85
2022/04/25 00:47:44;;;;;;;5.85;3.80;;;20.90;60.60;;;;;;5007580;28;94000;-86
2022/04/25 00:50:11;;;;;;;5.75;4.32;;;20.90;60.70;;;;;;5005255;28;92559;-88
2022/04/25 00:52:38;;;;;;;5.60;4.65;;;20.90;60.70;;;;;;5004133;28;94901;-85
2022/04/25 00:55:09;;;;;;;6.57;3.95;;;20.90;60.70;;;;;;5006212;28;92144;-87
2022/04/25 00:57:35;;;;;;;6.03;4.28;;;20.90;60.60;;;;;;5006987;28;92216;-86
2022/04/25 01:00:03;;;;;;;5.07;3.83;;;20.90;61.40;;;;;;5005326;28;92385;-86
2022/04/25 01:02:29;;;;;;;5.47;4.40;;;20.90;60.70;;;;;;5006441;28;92667;-87
2022/04/25 01:05:05;;;;;;;4.80;4.00;;;20.90;60.60;;;;;;5004897;28;92172;-86
2022/04/25 01:07:36;;;;;;;7.32;4.00;;;20.80;60.40;;;;;;5005796;28;92708;-87
2022/04/25 01:10:03;;;;;;;5.45;4.05;;;20.90;60.70;;;;;;5003208;28;92573;-87
2022/04/25 01:12:29;;;;;;;6.80;4.40;;;20.90;60.60;;;;;;5003188;28;93988;-86
2022/04/25 01:15:00;;;;;;;5.78;4.10;;;20.90;60.50;;;;;;5004466;28;92126;-85
2022/04/25 01:17:26;;;;;;;5.15;4.03;;;20.90;60.50;;;;;;5006408;28;93249;-86
2022/04/25 01:19:52;;;;;;;4.65;3.65;;;20.90;60.50;;;;;;5003100;28;92845;-85
2022/04/25 01:22:21;;;;;;;5.10;3.65;;;20.80;60.40;;;;;;5005017;28;96109;-85
2022/04/25 01:27:39;;;;;;;4.70;3.83;;;20.80;60.60;;;;;;5007300;28;92032;-85
2022/04/25 01:30:07;;;;;;;5.47;4.15;;;20.80;60.40;;;;;;5003730;28;92214;-86
2022/04/25 01:32:33;;;;;;;4.22;3.80;;;20.90;60.50;;;;;;5005423;28;92441;-84
2022/04/25 01:34:58;;;;;;;4.60;3.55;;;20.80;60.50;;;;;;5007877;28;92476;-84
2022/04/25 01:37:24;;;;;;;5.63;3.95;;;20.80;60.40;;;;;;5002628;28;93170;-84
2022/04/25 01:39:52;;;;;;;5.53;3.97;;;20.80;60.50;;;;;;5007227;28;92718;-86
2022/04/25 01:42:20;;;;;;;4.78;4.18;;;20.80;60.40;;;;;;5008061;28;92801;-87
2022/04/25 01:44:46;;;;;;;4.22;3.83;;;20.80;60.20;;;;;;5012666;28;94964;-86
2022/04/25 01:47:12;;;;;;;4.57;3.83;;;20.80;60.30;;;;;;5006400;28;93040;-85
2022/04/25 01:49:38;;;;;;;5.40;4.10;;;20.80;60.30;;;;;;5003801;28;92873;-85
2022/04/25 01:52:04;;;;;;;4.03;3.50;;;20.80;60.40;;;;;;5004009;28;95662;-87
2022/04/25 01:54:32;;;;;;;4.32;3.88;;;20.80;60.20;;;;;;5006825;28;92349;-86
2022/04/25 01:56:58;;;;;;;3.63;3.22;;;20.80;60.30;;;;;;5003085;28;93022;-87
2022/04/25 01:59:23;;;;;;;6.05;3.80;;;20.80;60.30;;;;;;5004713;28;92490;-87
2022/04/25 02:01:50;;;;;;;4.38;3.33;;;20.80;60.30;;;;;;5003149;28;94010;-85
2022/04/25 02:04:16;;;;;;;4.43;4.03;;;20.80;60.50;;;;;;5002010;28;93563;-84
2022/04/25 02:06:41;;;;;;;4.15;3.75;;;20.80;60.30;;;;;;5003682;28;92474;-86
2022/04/25 02:09:08;;;;;;;4.25;3.85;;;20.80;60.20;;;;;;5004955;28;92937;-85
2022/04/25 02:11:34;;;;;;;4.00;3.60;;;20.70;60.20;;;;;;5003345;28;94697;-84
2022/04/25 02:14:00;;;;;;;4.95;3.63;;;20.80;60.20;;;;;;5004482;28;93013;-85
2022/04/25 02:16:26;;;;;;;4.55;3.70;;;20.70;60.30;;;;;;5002363;28;92452;-86
2022/04/25 02:18:53;;;;;;;4.18;3.70;;;20.80;60.20;;;;;;5002319;28;92132;-86
2022/04/25 02:21:19;;;;;;;4.40;3.95;;;20.70;60.30;;;;;;5010872;28;94497;-86
2022/04/25 02:23:45;;;;;;;3.83;3.40;;;20.70;60.20;;;;;;5003752;28;92880;-86
2022/04/25 02:26:11;;;;;;;4.43;3.72;;;20.70;60.10;;;;;;5001713;28;92899;-86
2022/04/25 02:28:37;;;;;;;4.30;3.78;;;20.70;60.10;;;;;;5003642;28;92560;-85
2022/04/25 02:31:05;;;;;;;6.53;4.35;;;20.70;60.20;;;;;;4993766;28;96027;-87
2022/04/25 02:33:31;;;;;;;4.30;3.50;;;20.70;60.00;;;;;;5003665;28;92537;-85
2022/04/25 02:35:58;;;;;;;4.05;3.65;;;20.70;60.10;;;;;;5002830;28;91943;-87
2022/04/25 02:38:23;;;;;;;4.45;3.45;;;20.70;60.10;;;;;;5007521;28;91909;-85
2022/04/25 02:41:04;;;;;;;3.90;3.60;;;20.70;60.00;;;;;;5006817;28;92803;-87
2022/04/25 02:43:40;;;;;;;3.75;3.45;;;20.70;60.00;;;;;;5005589;28;92840;-87
2022/04/25 02:46:08;;;;;;;3.53;3.10;;;20.70;59.90;;;;;;5002150;28;92482;-86
2022/04/25 02:48:35;;;;;;;3.95;3.53;;;20.70;60.00;;;;;;5002053;28;93193;-87
2022/04/25 02:51:02;;;;;;;5.10;4.00;;;20.70;60.20;;;;;;5000436;28;95198;-86
2022/04/25 02:53:28;;;;;;;4.05;3.60;;;20.70;60.10;;;;;;5005113;28;93147;-84
2022/04/25 02:55:53;;;;;;;4.60;4.20;;;20.60;60.00;;;;;;5003279;28;92380;-86
2022/04/25 02:58:20;;;;;;;4.10;3.40;;;20.60;59.90;;;;;;5002100;28;92546;-86
2022/04/25 03:00:47;;;;;;;3.95;3.55;;;20.70;59.90;;;;;;5002578;28;92632;-86
2022/04/25 03:03:14;;;;;;;3.92;3.53;;;20.60;60.00;;;;;;5005299;28;93380;-84
2022/04/25 03:05:45;;;;;;;4.30;3.67;;;20.60;59.90;;;;;;5000065;28;91965;-87
2022/04/25 03:08:12;;;;;;;3.92;3.50;;;20.60;59.90;;;;;;5005639;28;91967;-86
2022/04/25 03:10:38;;;;;;;3.88;3.45;;;20.60;60.70;;;;;;5002403;28;93470;-86
2022/04/25 03:13:07;;;;;;;5.00;3.75;;;20.60;59.80;;;;;;5005384;28;93185;-86
2022/04/25 03:15:34;;;;;;;3.80;3.35;;;20.60;59.70;;;;;;5002258;28;93186;-87
2022/04/25 03:18:08;;;;;;;3.92;3.63;;;20.60;59.80;;;;;;5004170;28;92615;-86
2022/04/25 03:20:34;;;;;;;4.55;3.75;;;20.60;59.70;;;;;;5000872;28;95567;-86
2022/04/25 03:23:00;;;;;;;4.00;3.05;;;20.60;59.60;;;;;;5005315;28;92442;-86
2022/04/25 03:25:28;;;;;;;3.72;3.28;;;20.60;59.80;;;;;;5003022;28;92555;-85
2022/04/25 03:27:54;;;;;;;4.20;3.80;;;20.70;59.90;;;;;;5001666;28;92272;-86
2022/04/25 03:30:20;;;;;;;4.63;4.10;;;20.60;59.80;;;;;;5002270;28;92517;-86
2022/04/25 03:32:47;;;;;;;4.90;3.40;;;20.60;59.80;;;;;;5003653;28;92328;-85
2022/04/25 03:35:17;;;;;;;5.07;3.60;;;20.60;59.70;;;;;;5002617;28;93020;-86
2022/04/25 03:37:44;;;;;;;4.22;3.70;;;20.60;59.80;;;;;;5002982;28;92056;-84
2022/04/25 03:40:10;;;;;;;3.65;3.20;;;20.60;59.60;;;;;;5003326;28;94035;-86
2022/04/25 03:42:37;;;;;;;3.67;3.00;;;20.60;59.60;;;;;;5001659;28;96420;-86
2022/04/25 03:45:11;;;;;;;3.95;3.50;;;20.60;59.70;;;;;;5004640;28;92186;-87
2022/04/25 03:47:38;;;;;;;4.18;3.65;;;20.60;59.50;;;;;;5003239;28;92470;-84
2022/04/25 03:50:14;;;;;;;3.22;2.92;;;20.60;59.80;;;;;;5002165;28;95005;-86
2022/04/25 03:52:42;;;;;;;3.80;3.10;;;20.50;59.70;;;;;;5002155;28;92746;-85
2022/04/25 03:57:55;;;;;;;3.03;2.72;;;20.60;60.00;;;;;;5002381;28;91387;-87
2022/04/25 04:00:21;;;;;;;3.42;3.13;;;20.50;59.70;;;;;;5002274;28;93154;-86
2022/04/25 04:02:47;;;;;;;4.05;3.53;;;20.50;59.80;;;;;;5001091;28;93043;-87
2022/04/25 04:05:13;;;;;;;4.10;3.70;;;20.50;59.70;;;;;;5001076;28;93393;-86
2022/04/25 04:07:39;;;;;;;3.38;3.08;;;20.50;59.80;;;;;;4992859;28;92351;-86
2022/04/25 04:10:06;;;;;;;3.83;3.40;;;20.50;60.50;;;;;;4999130;28;92733;-86
2022/04/25 04:12:32;;;;;;;3.67;3.30;;;20.50;59.80;;;;;;5001450;28;93419;-87
2022/04/25 04:15:24;;;;;;;3.78;3.38;;;20.50;59.70;;;;;;5005315;28;92735;-86
2022/04/25 04:17:50;;;;;;;3.80;3.50;;;20.50;59.80;;;;;;5004471;28;92122;-85
2022/04/25 04:20:15;;;;;;;3.40;3.10;;;20.50;59.80;;;;;;5002671;28;95902;-87
2022/04/25 04:22:41;;;;;;;3.65;3.33;;;20.50;59.70;;;;;;5005779;28;91895;-87
2022/04/25 04:25:12;;;;;;;3.33;3.03;;;20.50;59.60;;;;;;5004147;28;92350;-84
2022/04/25 04:27:39;;;;;;;3.75;3.33;;;20.50;59.70;;;;;;5002746;28;92344;-86
2022/04/25 04:30:16;;;;;;;4.03;3.63;;;20.50;59.70;;;;;;5003062;28;97338;-86
2022/04/25 04:32:42;;;;;;;4.53;3.40;;;20.50;59.70;;;;;;5002560;28;95134;-87
2022/04/25 04:35:12;;;;;;;3.83;3.20;;;20.50;59.80;;;;;;5002811;28;92469;-85
2022/04/25 04:37:46;;;;;;;4.78;3.38;;;20.50;59.90;;;;;;5005375;28;92969;-85
2022/04/25 04:40:30;;;;;;;4.18;3.50;;;20.50;59.90;;;;;;5003593;28;92906;-85
2022/04/25 04:42:56;;;;;;;3.83;3.30;;;20.40;59.60;;;;;;5007698;28;93398;-84
2022/04/25 04:45:22;;;;;;;3.97;3.58;;;20.50;59.90;;;;;;5007461;28;92526;-84
2022/04/25 04:47:48;;;;;;;3.92;3.28;;;20.50;59.80;;;;;;5000483;28;91658;-84
2022/04/25 04:50:15;;;;;;;3.35;2.90;;;20.50;59.60;;;;;;5002464;28;93654;-85
2022/04/25 04:52:52;;;;;;;4.13;3.40;;;20.50;59.50;;;;;;5003903;28;92251;-87
2022/04/25 04:55:18;;;;;;;4.75;3.20;;;20.40;59.50;;;;;;5006481;28;93591;-87
2022/04/25 04:57:45;;;;;;;3.78;3.47;;;20.40;59.60;;;;;;5003578;28;92916;-85
2022/04/25 05:00:31;;;;;;;3.40;3.10;;;20.50;59.70;;;;;;5001330;28;93242;-85
2022/04/25 05:02:57;;;;;;;3.45;3.00;;;20.40;59.40;;;;;;5003443;28;480375;-86
2022/04/25 05:05:22;;;;;;;3.10;2.70;;;20.50;59.40;;;;;;5005290;28;92424;-84
2022/04/25 05:07:48;;;;;;;3.63;3.28;;;20.50;59.40;;;;;;5002604;28;92356;-86
2022/04/25 05:10:14;;;;;;;3.35;3.03;;;20.50;59.30;;;;;;5005742;28;93254;-85
2022/04/25 05:12:53;;;;;;;3.63;3.25;;;20.50;59.40;;;;;;5004941;28;96065;-85
2022/04/25 05:15:20;;;;;;;3.17;2.88;;;20.50;59.60;;;;;;5002866;28;92208;-86
2022/04/25 05:17:50;;;;;;;3.08;2.85;;;20.50;59.60;;;;;;5003950;28;92634;-86
2022/04/25 05:20:18;;;;;;;3.25;2.95;;;20.50;59.60;;;;;;5000216;28;96906;-87
2022/04/25 05:22:45;;;;;;;3.97;3.58;;;20.50;59.70;;;;;;5004678;28;92271;-86
2022/04/25 05:25:16;;;;;;;3.53;3.20;;;20.50;59.70;;;;;;5002013;28;92712;-84
2022/04/25 05:27:44;;;;;;;3.42;3.13;;;20.50;59.70;;;;;;5004915;28;92830;-86
2022/04/25 05:30:10;;;;;;;3.17;2.97;;;20.50;59.70;;;;;;5002305;28;93092;-87
2022/04/25 05:32:46;;;;;;;3.78;3.15;;;20.50;59.70;;;;;;5000889;28;97000;-87
2022/04/25 05:35:13;;;;;;;3.42;3.05;;;20.50;59.60;;;;;;5007741;28;92888;-87
2022/04/25 05:37:39;;;;;;;4.45;3.50;;;20.50;59.80;;;;;;5003160;28;91922;-86
2022/04/25 05:40:06;;;;;;;3.20;2.90;;;20.50;59.80;;;;;;5001766;28;93212;-86
2022/04/25 05:42:32;;;;;;;3.13;2.70;;;20.60;59.80;;;;;;5004764;28;92291;-85
2022/04/25 05:45:03;;;;;;;4.13;3.05;;;20.60;59.90;;;;;;5005715;28;93413;-85
2022/04/25 05:47:28;;;;;;;3.63;3.03;;;20.50;59.80;;;;;;5006926;28;92784;-86
2022/04/25 05:52:39;;;;;;;3.15;2.85;;;20.60;59.80;;;;;;5005980;28;92605;-86
2022/04/25 05:55:05;;;;;;;2.97;2.67;;;20.60;59.70;;;;;;5007457;28;92451;-85
2022/04/25 05:57:31;;;;;;;3.10;2.80;;;20.60;59.70;;;;;;5005514;28;92270;-85
2022/04/25 05:59:56;;;;;;;3.00;2.70;;;20.60;60.20;;;;;;5007921;28;92782;-85
2022/04/25 06:02:22;;;;;;;3.50;2.92;;;20.70;59.80;;;;;;5007125;28;94816;-85
2022/04/25 06:04:47;;;;;;;3.33;2.80;;;20.60;59.80;;;;;;5008961;28;92312;-85
2022/04/25 06:07:13;;;;;;;3.53;3.22;;;20.60;59.60;;;;;;5006905;28;92056;-83
2022/04/25 06:09:39;;;;;;;5.00;3.15;;;20.60;59.70;;;;;;5005116;28;94222;-85
2022/04/25 06:12:05;;;;;;;3.20;2.90;;;20.60;59.90;;;;;;5003349;28;93381;-84
2022/04/25 06:14:31;;;;;;;4.00;2.95;;;20.60;59.80;;;;;;5006151;28;92447;-86
2022/04/25 06:16:59;;;;;;;3.05;2.72;;;20.60;59.60;;;;;;5006785;28;91909;-87
2022/04/25 06:19:24;;;;;;;3.45;3.15;;;20.60;60.50;;;;;;5006161;28;92448;-87
2022/04/25 06:21:50;;;;;;;2.92;2.50;;;20.50;59.70;;;;;;5005424;28;93014;-86
2022/04/25 06:24:16;;;;;;;4.68;3.60;;;20.50;59.60;;;;;;5012856;28;92633;-87
2022/04/25 06:26:41;;;;;;;5.10;3.55;;;20.60;59.70;;;;;;5007455;28;92616;-87
2022/04/25 06:29:07;;;;;;;6.03;3.90;;;20.50;60.00;;;;;;5007451;28;93155;-89
2022/04/25 06:31:33;;;;;;;6.35;3.60;;;20.50;60.40;;;;;;5004727;28;92491;-86
2022/04/25 06:33:59;;;;;;;4.63;4.10;;;20.60;60.20;;;;;;5003975;28;93672;-86
2022/04/25 06:36:36;;;;;;;10.52;3.60;;;20.60;60.80;;;;;;5004948;28;91931;-86
2022/04/25 06:39:02;;;;;;;6.38;3.70;;;20.60;60.70;;;;;;5002873;28;95523;-87
2022/04/25 06:41:28;;;;;;;7.25;3.58;;;20.60;61.00;;;;;;5005752;28;92490;-85
2022/04/25 06:43:54;;;;;;;6.68;3.80;;;20.60;61.10;;;;;;5005016;28;92277;-86
2022/04/25 06:46:20;;;;;;;5.28;3.42;;;20.50;61.20;;;;;;4998802;28;92309;-86
2022/04/25 06:49:19;;;;;;;4.43;3.45;;;20.60;61.50;;;;;;5005436;28;95724;-87
2022/04/25 06:51:31;;;;;;;5.45;4.10;;;20.50;61.70;;;;;;5008241;28;93360;-86
2022/04/25 06:53:58;;;;;;;6.25;4.03;;;20.50;61.70;;;;;;5007233;28;92412;-88
2022/04/25 06:56:24;;;;;;;6.35;3.65;;;20.50;61.60;;;;;;5003523;28;93046;-87
2022/04/25 06:58:49;;;;;;;5.65;3.58;;;20.50;61.70;;;;;;5006173;28;94238;-86
2022/04/25 07:01:15;;;;;;;5.70;3.92;;;20.60;61.50;;;;;;5005001;28;93263;-86
2022/04/25 07:03:41;;;;;;;6.50;4.00;;;20.60;61.60;;;;;;5009110;28;92762;-89
2022/04/25 07:06:10;;;;;;;8.88;3.78;;;20.50;61.50;;;;;;5004414;28;92566;-89
2022/04/25 07:08:40;;;;;;;7.57;4.00;;;20.50;61.00;;;;;;5003978;28;95445;-88
2022/04/25 07:11:06;;;;;;;6.72;3.65;;;20.50;61.30;;;;;;5004771;28;95040;-88
2022/04/25 07:13:31;;;;;;;10.02;3.53;;;20.60;61.20;;;;;;4986296;28;92789;-87
2022/04/25 07:15:57;;;;;;;8.68;3.88;;;20.50;59.80;;;;;;4998786;28;91751;-86
2022/04/25 07:18:22;;;;;;;8.85;3.78;;;20.60;61.40;;;;;;5005211;28;93090;-88
2022/04/25 07:20:48;;;;;;;7.47;3.90;;;20.50;61.00;;;;;;5000982;28;94897;-89
2022/04/25 07:28:57;;;;;;;12.00;4.55;;;20.50;58.20;;;;;;5005486;28;93214;-88
2022/04/25 07:31:23;;;;;;;7.20;4.25;;;20.50;58.60;;;;;;5004828;28;92699;-87
2022/04/25 07:33:49;;;;;;;12.20;4.25;;;20.50;60.50;;;;;;5005721;28;91955;-89
2022/04/25 07:36:17;;;;;;;7.45;3.70;;;20.50;60.40;;;;;;5003152;28;92929;-89
2022/04/25 07:38:44;;;;;;;10.15;4.45;;;20.50;60.10;;;;;;5002602;28;92867;-88
2022/04/25 07:41:09;;;;;;;12.40;4.50;;;20.50;60.00;;;;;;5003909;28;95899;-87
2022/04/25 07:43:35;;;;;;;7.85;4.15;;;20.50;60.10;;;;;;5005147;28;91927;-88
2022/04/25 07:46:01;;;;;;;10.43;5.05;;;20.40;60.00;;;;;;5004275;28;92022;-87
2022/04/25 07:48:27;;;;;;;11.25;5.25;;;20.50;60.00;;;;;;5003779;28;95674;-90
2022/04/25 07:50:53;;;;;;;11.90;4.97;;;20.40;60.00;;;;;;5000832;28;93265;-87
2022/04/25 07:53:19;;;;;;;16.50;5.20;;;20.40;59.90;;;;;;5008575;28;92409;-88
2022/04/25 07:55:45;;;;;;;11.85;4.95;;;20.50;60.00;;;;;;5007694;28;92142;-87
2022/04/25 07:58:10;;;;;;;15.70;5.80;;;20.40;59.80;;;;;;5007256;28;93193;-89
2022/04/25 08:00:38;;;;;;;13.85;5.65;;;20.40;59.90;;;;;;5005350;28;92641;-87
2022/04/25 08:03:04;;;;;;;16.63;5.90;;;20.40;59.90;;;;;;5004884;28;91986;-87
2022/04/25 08:05:39;;;;;;;18.77;6.65;;;20.40;59.70;;;;;;5007401;28;91715;-88
2022/04/25 08:08:05;;;;;;;18.83;6.43;;;20.40;59.70;;;;;;5007693;28;92948;-88
2022/04/25 08:10:31;;;;;;;18.60;6.50;;;20.40;59.70;;;;;;5008263;28;94095;-87
2022/04/25 08:18:25;;;;;;;19.30;7.10;;;20.40;59.70;;;;;;5007591;28;92499;-88
2022/04/25 08:20:52;;;;;;;19.42;7.68;;;20.40;59.60;;;;;;5005956;28;92301;-89
2022/04/25 08:23:26;;;;;;;20.50;7.35;;;20.40;59.70;;;;;;5011149;28;92314;-89
2022/04/25 08:25:52;;;;;;;15.65;7.10;;;20.40;59.80;;;;;;5005321;28;92298;-88
2022/04/25 08:28:19;;;;;;;19.58;7.40;;;20.40;59.70;;;;;;5009836;28;92804;-87
2022/04/25 08:30:45;;;;;;;22.33;7.95;;;20.40;59.70;;;;;;5005879;28;95287;-89
2022/04/25 08:33:12;;;;;;;18.98;7.80;;;20.40;59.50;;;;;;5005164;28;92879;-86
2022/04/25 08:35:38;;;;;;;21.75;8.80;;;20.40;59.70;;;;;;5006791;28;92525;-87
2022/04/25 08:38:04;;;;;;;21.90;8.05;;;20.40;59.60;;;;;;5007843;28;93701;-89
2022/04/25 08:40:30;;;;;;;22.00;7.78;;;20.40;59.60;;;;;;5005287;28;93556;-87
2022/04/25 08:42:58;;;;;;;18.48;7.72;;;20.40;59.60;;;;;;5005028;28;92530;-87
2022/04/25 08:45:24;;;;;;;19.95;7.57;;;20.40;59.80;;;;;;5003457;28;92023;-87
2022/04/25 08:47:58;;;;;;;19.23;8.57;;;20.40;59.60;;;;;;5005494;28;94196;-87
2022/04/25 08:50:26;;;;;;;26.90;8.50;;;20.40;59.70;;;;;;5006911;28;92596;-87
2022/04/25 08:52:53;;;;;;;19.88;8.32;;;20.40;59.60;;;;;;5004945;28;92307;-88
2022/04/25 08:55:38;;;;;;;22.20;8.75;;;20.40;59.50;;;;;;5006030;28;91637;-88
2022/04/25 08:58:05;;;;;;;25.95;9.52;;;20.40;59.40;;;;;;5005125;28;93869;-88
2022/04/25 09:00:30;;;;;;;23.75;8.40;;;20.50;59.60;;;;;;5004812;28;92527;-88
2022/04/25 09:02:57;;;;;;;22.73;8.48;;;20.50;59.80;;;;;;5002423;28;93307;-88
2022/04/25 09:05:23;;;;;;;20.83;8.75;;;20.50;59.60;;;;;;5004564;28;92231;-87
2022/04/25 09:07:48;;;;;;;21.85;8.90;;;20.50;59.60;;;;;;5005609;28;96376;-86
2022/04/25 09:10:17;;;;;;;22.92;8.20;;;20.50;59.60;;;;;;5002714;28;93265;-88
2022/04/25 09:12:46;;;;;;;21.40;9.02;;;20.50;59.70;;;;;;5004072;28;92513;-85
2022/04/25 09:15:12;;;;;;;;;;;20.50;59.70;;;;;;5004416;28;92354;-86
2022/04/25 09:17:41;;;;;;;26.45;9.38;;;20.50;59.70;;;;;;5006406;28;93362;-85
2022/04/25 09:20:08;;;;;;;22.27;9.00;;;20.50;59.50;;;;;;5006046;28;92303;-86
2022/04/25 09:22:36;;;;;;;24.50;9.13;;;20.50;59.60;;;;;;5001773;28;91955;-89
2022/04/25 09:25:22;;;;;;;21.70;8.95;;;20.50;59.60;;;;;;5006966;28;92497;-87
2022/04/25 09:28:06;;;;;;;24.58;9.10;;;20.50;59.50;;;;;;5003040;28;93847;-89
2022/04/25 09:30:32;;;;;;;23.48;8.98;;;20.50;59.60;;;;;;5006890;28;93345;-85
2022/04/25 09:32:58;;;;;;;23.42;9.07;;;20.50;59.60;;;;;;5006734;28;92366;-86
2022/04/25 09:35:42;;;;;;;19.55;9.13;;;20.50;59.60;;;;;;5008066;28;92483;-87
2022/04/25 09:38:27;;;;;;;21.55;8.90;;;20.50;59.70;;;;;;5022335;28;96021;-87
2022/04/25 09:40:55;;;;;;;19.75;9.02;;;20.50;59.70;;;;;;5004296;28;93984;-87
2022/04/25 09:43:27;;;;;;;18.33;8.27;;;20.50;59.60;;;;;;5004457;28;92717;-87
2022/04/25 09:46:02;;;;;;;21.25;8.77;;;20.50;59.70;;;;;;5007039;28;91744;-87
2022/04/25 09:48:28;;;;;;;20.20;8.07;;;20.50;59.60;;;;;;5005905;28;92748;-85
2022/04/25 09:51:07;;;;;;;17.55;8.48;;;20.50;59.50;;;;;;4993003;28;93183;-88
2022/04/25 09:53:45;;;;;;;22.95;8.55;;;20.50;59.60;;;;;;5004527;28;93032;-88
2022/04/25 09:56:12;;;;;;;17.23;7.88;;;20.50;59.70;;;;;;5019412;28;92555;-85
2022/04/25 09:58:40;;;;;;;17.05;8.02;;;20.50;59.80;;;;;;5003962;28;92596;-88
2022/04/25 10:01:14;;;;;;;18.92;8.43;;;20.50;59.60;;;;;;5003579;28;92808;-87
2022/04/25 10:03:41;;;;;;;16.58;7.35;;;20.40;59.70;;;;;;5003429;28;92351;-87
2022/04/25 10:06:07;;;;;;;18.92;8.25;;;20.40;60.30;;;;;;5005671;28;92948;-87
2022/04/25 10:08:35;;;;;;;16.45;7.68;;;20.50;59.60;;;;;;5003381;28;92786;-87
2022/04/25 10:11:04;;;;;;;22.17;7.97;;;20.50;59.70;;;;;;5005443;28;93514;-88
2022/04/25 10:13:31;;;;;;;16.63;8.00;;;20.40;59.60;;;;;;5004744;28;92712;-87
2022/04/25 10:15:57;;;;;;;19.13;7.22;;;20.40;59.60;;;;;;5004562;28;92688;-89
2022/04/25 10:18:25;;;;;;;17.75;8.07;;;20.40;59.60;;;;;;5004962;28;93721;-88
2022/04/25 10:20:51;;;;;;;14.95;7.63;;;20.50;59.80;;;;;;5002891;28;94429;-87
2022/04/25 10:23:24;;;;;;;17.00;7.40;;;20.40;60.40;;;;;;5004971;28;91974;-89
2022/04/25 10:25:52;;;;;;;16.58;7.90;;;20.40;59.80;;;;;;5005994;28;92512;-87
2022/04/25 10:28:33;;;;;;;18.88;8.13;;;20.40;59.70;;;;;;5003391;28;93259;-87
2022/04/25 10:31:02;;;;;;;17.98;7.75;;;20.40;59.60;;;;;;5018886;28;95457;-88
2022/04/25 10:33:50;;;;;;;14.77;8.05;;;20.50;59.70;;;;;;5003946;28;93094;-87
2022/04/25 10:36:34;;;;;;;18.08;7.35;;;20.40;59.50;;;;;;5002104;28;91190;-86
2022/04/25 10:39:22;;;;;;;17.48;8.23;;;20.40;59.60;;;;;;5004743;28;92713;-89
2022/04/25 10:44:40;;;;;;;19.48;8.27;;;20.40;59.60;;;;;;5001750;28;93762;-89
2022/04/25 10:47:15;;;;;;;23.42;8.07;;;20.40;59.70;;;;;;5002303;28;92074;-87
2022/04/25 10:49:46;;;;;;;19.73;7.68;;;20.40;60.10;;;;;;5001459;28;94718;-85
2022/04/25 10:52:33;;;;;;;15.75;7.13;;;20.50;59.70;;;;;;5003449;28;92766;-86
2022/04/25 10:55:21;;;;;;;16.95;7.80;;;20.50;59.70;;;;;;5003055;28;93091;-89
2022/04/25 10:58:02;;;;;;;19.27;7.88;;;20.50;59.60;;;;;;5003065;28;92327;-88
2022/04/25 11:00:37;;;;;;;47.58;19.50;;;20.50;59.60;;;;;;5004512;28;93170;-89
2022/04/25 11:03:06;;;;;;;131.55;46.53;;;20.50;59.50;;;;;;5004935;28;93287;-89
2022/04/25 11:05:36;;;;;;;140.85;47.45;;;20.50;59.40;;;;;;5002759;28;92456;-88
2022/04/25 11:08:20;;;;;;;110.18;39.22;;;20.50;59.40;;;;;;5017813;28;92903;-88
2022/04/25 11:10:50;;;;;;;85.47;36.88;;;20.50;59.40;;;;;;5003362;28;95343;-88
2022/04/25 11:13:23;;;;;;;85.95;33.05;;;20.50;59.40;;;;;;5004297;28;92750;-88
2022/04/25 11:15:54;;;;;;;79.07;31.77;;;20.50;59.30;;;;;;5002367;28;91998;-86
2022/04/25 11:18:33;;;;;;;74.88;30.77;;;20.50;59.30;;;;;;5002910;28;92611;-87
2022/04/25 11:21:12;;;;;;;71.82;29.38;;;20.50;58.70;;;;;;5004092;28;92587;-87
2022/04/25 11:23:43;;;;;;;63.42;23.35;;;20.50;59.00;;;;;;5003206;28;92020;-88
2022/04/25 11:26:24;;;;;;;57.33;21.25;;;20.60;58.20;;;;;;5000575;28;92207;-88
2022/04/25 11:28:58;;;;;;;47.63;19.88;;;20.60;57.70;;;;;;5004797;28;91932;-90
2022/04/25 11:31:33;;;;;;;50.53;21.00;;;20.60;57.30;;;;;;4946863;28;92779;-90
2022/04/25 11:34:13;;;;;;;50.78;19.50;;;20.60;57.00;;;;;;5000028;28;92661;-89
2022/04/25 11:36:41;;;;;;;51.65;20.13;;;20.50;56.60;;;;;;5004904;28;93466;-88
2022/04/25 11:41:54;;;;;;;54.90;23.13;;;20.50;57.90;;;;;;5004916;28;92540;-88
2022/04/25 11:44:21;;;;;;;52.60;20.80;;;20.60;58.00;;;;;;5006147;28;92490;-87
2022/04/25 11:46:48;;;;;;;47.63;19.98;;;20.50;58.10;;;;;;5001892;28;93205;-86
2022/04/25 11:49:26;;;;;;;49.58;20.75;;;20.50;57.90;;;;;;5003170;28;92922;-86
2022/04/25 11:51:52;;;;;;;48.92;19.50;;;20.50;58.10;;;;;;5003674;28;92502;-88
2022/04/25 11:54:17;;;;;;;58.25;20.15;;;20.50;57.60;;;;;;5003675;28;92442;-88
2022/04/25 11:56:44;;;;;;;42.00;18.35;;;20.50;57.40;;;;;;5003456;28;92301;-85
2022/04/25 11:59:14;;;;;;;40.00;17.73;;;20.50;56.70;;;;;;5008460;28;92856;-87
2022/04/25 12:01:43;;;;;;;36.90;17.05;;;20.50;57.20;;;;;;4998168;28;93105;-84
2022/04/25 12:04:15;;;;;;;33.63;17.08;;;20.50;56.90;;;;;;5001458;28;94723;-86
2022/04/25 12:06:55;;;;;;;34.67;16.10;;;20.50;56.80;;;;;;5002876;28;92100;-86
2022/04/25 12:17:51;;;;;;;35.70;15.50;;;20.60;56.10;;;;;;5001866;28;92354;-85
2022/04/25 12:20:19;;;;;;;31.13;14.73;;;20.50;56.00;;;;;;5000705;28;91714;-85
2022/04/25 12:22:53;;;;;;;30.30;13.65;;;20.50;56.20;;;;;;4999478;28;94523;-86
2022/04/25 12:25:24;;;;;;;28.20;13.30;;;20.50;55.70;;;;;;4998572;28;94529;-86
2022/04/25 12:28:23;;;;;;;27.33;13.88;;;20.50;53.10;;;;;;5001764;28;92949;-86
2022/04/25 12:31:04;;;;;;;26.23;13.35;;;20.50;53.50;;;;;;4976578;28;92414;-87
2022/04/25 12:33:35;;;;;;;31.70;13.50;;;20.50;54.80;;;;;;5001432;28;94174;-88
2022/04/25 12:36:24;;;;;;;25.98;13.18;;;20.50;55.60;;;;;;5000567;28;94865;-86
2022/04/25 12:38:54;;;;;;;27.88;12.60;;;20.50;55.50;;;;;;5006851;28;92529;-87
2022/04/25 12:41:27;;;;;;;22.70;12.25;;;20.50;55.20;;;;;;5021748;28;92664;-88
2022/04/25 12:43:54;;;;;;;29.33;12.75;;;20.50;55.60;;;;;;5001615;28;92318;-86
2022/04/25 12:46:43;;;;;;;30.35;11.55;;;20.50;55.40;;;;;;5004878;28;92429;-87
2022/04/25 12:49:32;;;;;;;24.08;12.35;;;20.60;55.70;;;;;;5005462;28;92633;-90
2022/04/25 12:51:59;;;;;;;25.55;11.98;;;20.60;56.10;;;;;;5008556;28;93189;-89
2022/04/25 12:54:32;;;;;;;20.52;10.93;;;20.60;56.00;;;;;;5006344;28;95480;-88
2022/04/25 12:57:12;;;;;;;26.05;12.15;;;20.50;56.00;;;;;;5007651;28;93479;-88
2022/04/25 12:59:38;;;;;;;25.83;13.05;;;20.50;56.10;;;;;;5013450;28;92406;-87
2022/04/25 13:02:12;;;;;;;25.35;12.05;;;20.50;56.00;;;;;;5008168;28;92494;-85
2022/04/25 13:05:03;;;;;;;28.75;11.90;;;20.50;56.10;;;;;;5004511;28;94362;-87
2022/04/25 13:07:43;;;;;;;19.17;10.98;;;20.50;55.30;;;;;;5005852;28;93268;-88
2022/04/25 13:10:13;;;;;;;22.70;11.43;;;20.50;55.70;;;;;;5004550;28;94093;-86
2022/04/25 13:12:47;;;;;;;24.30;11.60;;;20.50;56.10;;;;;;5003380;28;91329;-86
2022/04/25 13:15:15;;;;;;;24.45;11.73;;;20.50;56.00;;;;;;5006803;28;92798;-85
2022/04/25 13:17:41;;;;;;;22.77;10.98;;;20.50;56.00;;;;;;5020267;28;95201;-86
2022/04/25 13:20:20;;;;;;;20.60;11.18;;;20.50;56.00;;;;;;5003238;28;93268;-86
2022/04/25 13:22:47;;;;;;;23.00;11.15;;;20.50;56.20;;;;;;5005566;28;92752;-84
2022/04/25 13:25:14;;;;;;;26.15;11.48;;;20.50;56.10;;;;;;5003606;28;95211;-86